OEBH

Bisha Domestic Airport

Airport
ICAO code
OEBH
IATA Code
BHH
Summary
ICAO Region
MID
ICAO Territory
Location

Bisha,

Serving
Bisha
Elevation
3888 ft
Coordinates
19° 59' 40" N , 42° 37' 7" E
KCC
Metar
Observation
OEBH 271400Z 06010KT 9999 FEW030 20/14 Q1017 NOSIG
Station
Bisha
Date/Time
2023-01-27 14:00:00
Wind direction
60°
Wind speed
10 kts
Lowest cloud amount
few clouds
Temperature
20°C
Dew point
14°C
Humidity
68%
QNH
1017 hPa
Weather condition
n/a

Description

Bisha Domestic Airport is located 1 km east of Bisha, Saudi Arabia.

Climatology

Hot Desert Climate (Köppen climate classification BWh) - Hot desert climates are typically found in the subtropics where there is unbroken sunshine for the whole year due to the stable descending air and high pressure, little or no precipitation. Maximum temperatures of 40°C to 45°C are not uncommon, particularly during the warmer months of the year. During colder periods of the year, night-time temperatures can drop to freezing or below due to the exceptional radiation loss under the clear skies. However, very rarely do temperatures drop far below freezing.

Runways

Designator Length Width Surface Rops
18/36 3050 45 ASP No/No

Airport map

Aerial View

SKYbrary Partners:

Safety knowledge contributed by: